sensor_id;sensor_type;location;lat;lon;timestamp;P1;durP1;ratioP1;P2;durP2;ratioP2
73779;SDS011;62093;37.614;15.072;2023-12-04T00:02:03;5.95;;;2.92;;
73779;SDS011;62093;37.614;15.072;2023-12-04T00:04:29;5.40;;;2.60;;
73779;SDS011;62093;37.614;15.072;2023-12-04T00:06:55;6.00;;;2.50;;
73779;SDS011;62093;37.614;15.072;2023-12-04T00:09:21;5.72;;;3.00;;
73779;SDS011;62093;37.614;15.072;2023-12-04T00:11:50;5.87;;;2.63;;
73779;SDS011;62093;37.614;15.072;2023-12-04T00:14:19;6.97;;;2.70;;
73779;SDS011;62093;37.614;15.072;2023-12-04T00:16:45;5.25;;;2.47;;
73779;SDS011;62093;37.614;15.072;2023-12-04T00:19:11;5.05;;;2.95;;
73779;SDS011;62093;37.614;15.072;2023-12-04T00:21:37;5.32;;;2.75;;
73779;SDS011;62093;37.614;15.072;2023-12-04T00:24:04;6.20;;;2.40;;
73779;SDS011;62093;37.614;15.072;2023-12-04T00:26:30;5.68;;;2.55;;
73779;SDS011;62093;37.614;15.072;2023-12-04T00:28:56;5.25;;;2.90;;
73779;SDS011;62093;37.614;15.072;2023-12-04T00:31:23;5.20;;;2.45;;
73779;SDS011;62093;37.614;15.072;2023-12-04T00:33:49;4.90;;;2.50;;
73779;SDS011;62093;37.614;15.072;2023-12-04T00:36:15;5.57;;;2.13;;
73779;SDS011;62093;37.614;15.072;2023-12-04T00:38:41;5.82;;;2.70;;
73779;SDS011;62093;37.614;15.072;2023-12-04T00:41:08;5.57;;;2.60;;
73779;SDS011;62093;37.614;15.072;2023-12-04T00:43:34;5.20;;;2.33;;
73779;SDS011;62093;37.614;15.072;2023-12-04T00:46:00;6.10;;;2.25;;
73779;SDS011;62093;37.614;15.072;2023-12-04T00:48:26;5.87;;;2.50;;
73779;SDS011;62093;37.614;15.072;2023-12-04T00:50:52;5.63;;;2.17;;
73779;SDS011;62093;37.614;15.072;2023-12-04T00:53:20;5.57;;;2.47;;
73779;SDS011;62093;37.614;15.072;2023-12-04T00:55:46;5.28;;;2.38;;
73779;SDS011;62093;37.614;15.072;2023-12-04T00:58:12;5.00;;;2.30;;
73779;SDS011;62093;37.614;15.072;2023-12-04T01:00:38;5.83;;;2.23;;
73779;SDS011;62093;37.614;15.072;2023-12-04T01:03:04;5.35;;;2.13;;
73779;SDS011;62093;37.614;15.072;2023-12-04T01:05:30;9.82;;;2.55;;
73779;SDS011;62093;37.614;15.072;2023-12-04T01:07:57;6.40;;;2.38;;
73779;SDS011;62093;37.614;15.072;2023-12-04T01:10:23;5.40;;;2.40;;
73779;SDS011;62093;37.614;15.072;2023-12-04T01:12:49;4.97;;;2.00;;
73779;SDS011;62093;37.614;15.072;2023-12-04T01:15:15;5.38;;;2.15;;
73779;SDS011;62093;37.614;15.072;2023-12-04T01:17:44;5.60;;;2.10;;
73779;SDS011;62093;37.614;15.072;2023-12-04T01:20:10;5.40;;;2.50;;
73779;SDS011;62093;37.614;15.072;2023-12-04T01:22:39;5.45;;;2.20;;
73779;SDS011;62093;37.614;15.072;2023-12-04T01:25:05;4.93;;;2.20;;
73779;SDS011;62093;37.614;15.072;2023-12-04T01:27:32;5.70;;;2.28;;
73779;SDS011;62093;37.614;15.072;2023-12-04T01:30:01;5.68;;;2.20;;
73779;SDS011;62093;37.614;15.072;2023-12-04T01:32:27;5.57;;;2.10;;
73779;SDS011;62093;37.614;15.072;2023-12-04T01:34:53;6.10;;;2.20;;
73779;SDS011;62093;37.614;15.072;2023-12-04T01:37:19;5.20;;;2.40;;
73779;SDS011;62093;37.614;15.072;2023-12-04T01:39:48;5.55;;;2.28;;
73779;SDS011;62093;37.614;15.072;2023-12-04T01:42:14;5.00;;;2.10;;
73779;SDS011;62093;37.614;15.072;2023-12-04T01:44:40;5.32;;;2.00;;
73779;SDS011;62093;37.614;15.072;2023-12-04T01:47:06;6.10;;;2.17;;
73779;SDS011;62093;37.614;15.072;2023-12-04T01:49:35;5.67;;;2.07;;
73779;SDS011;62093;37.614;15.072;2023-12-04T01:52:02;5.10;;;2.13;;
73779;SDS011;62093;37.614;15.072;2023-12-04T01:54:30;5.32;;;2.13;;
73779;SDS011;62093;37.614;15.072;2023-12-04T01:56:57;5.00;;;2.13;;
73779;SDS011;62093;37.614;15.072;2023-12-04T01:59:23;5.45;;;2.28;;
73779;SDS011;62093;37.614;15.072;2023-12-04T02:01:51;4.90;;;1.93;;
73779;SDS011;62093;37.614;15.072;2023-12-04T02:04:18;5.38;;;2.05;;
73779;SDS011;62093;37.614;15.072;2023-12-04T02:06:44;4.75;;;2.08;;
73779;SDS011;62093;37.614;15.072;2023-12-04T02:09:10;4.68;;;1.80;;
73779;SDS011;62093;37.614;15.072;2023-12-04T02:11:42;4.70;;;1.80;;
73779;SDS011;62093;37.614;15.072;2023-12-04T02:14:08;5.33;;;2.10;;
73779;SDS011;62093;37.614;15.072;2023-12-04T02:16:37;4.65;;;1.90;;
73779;SDS011;62093;37.614;15.072;2023-12-04T02:19:07;4.82;;;2.25;;
73779;SDS011;62093;37.614;15.072;2023-12-04T02:21:35;5.43;;;2.22;;
73779;SDS011;62093;37.614;15.072;2023-12-04T02:24:01;5.18;;;2.40;;
73779;SDS011;62093;37.614;15.072;2023-12-04T02:26:28;4.87;;;2.30;;
73779;SDS011;62093;37.614;15.072;2023-12-04T02:29:08;4.93;;;2.30;;
73779;SDS011;62093;37.614;15.072;2023-12-04T02:31:40;4.72;;;1.85;;
73779;SDS011;62093;37.614;15.072;2023-12-04T02:34:07;4.60;;;1.63;;
73779;SDS011;62093;37.614;15.072;2023-12-04T02:36:35;5.78;;;2.17;;
73779;SDS011;62093;37.614;15.072;2023-12-04T02:39:03;5.10;;;2.23;;
73779;SDS011;62093;37.614;15.072;2023-12-04T02:41:30;5.78;;;2.05;;
73779;SDS011;62093;37.614;15.072;2023-12-04T02:43:56;5.18;;;2.00;;
73779;SDS011;62093;37.614;15.072;2023-12-04T02:46:22;4.45;;;1.80;;
73779;SDS011;62093;37.614;15.072;2023-12-04T02:48:48;4.85;;;2.00;;
73779;SDS011;62093;37.614;15.072;2023-12-04T02:51:15;5.43;;;1.73;;
73779;SDS011;62093;37.614;15.072;2023-12-04T02:53:41;5.07;;;1.95;;
73779;SDS011;62093;37.614;15.072;2023-12-04T02:56:07;4.80;;;1.73;;
73779;SDS011;62093;37.614;15.072;2023-12-04T02:58:33;5.00;;;1.95;;
73779;SDS011;62093;37.614;15.072;2023-12-04T03:01:00;4.60;;;1.80;;
73779;SDS011;62093;37.614;15.072;2023-12-04T03:03:26;5.30;;;1.80;;
73779;SDS011;62093;37.614;15.072;2023-12-04T03:05:52;6.30;;;2.60;;
73779;SDS011;62093;37.614;15.072;2023-12-04T03:08:18;6.75;;;2.58;;
73779;SDS011;62093;37.614;15.072;2023-12-04T03:10:44;6.65;;;2.75;;
73779;SDS011;62093;37.614;15.072;2023-12-04T03:13:12;5.88;;;2.53;;
73779;SDS011;62093;37.614;15.072;2023-12-04T03:15:39;4.50;;;2.20;;
73779;SDS011;62093;37.614;15.072;2023-12-04T03:18:05;4.97;;;2.17;;
73779;SDS011;62093;37.614;15.072;2023-12-04T03:20:32;5.03;;;1.92;;
73779;SDS011;62093;37.614;15.072;2023-12-04T03:22:58;4.60;;;1.80;;
73779;SDS011;62093;37.614;15.072;2023-12-04T03:25:24;5.07;;;2.03;;
73779;SDS011;62093;37.614;15.072;2023-12-04T03:27:50;5.40;;;2.50;;
73779;SDS011;62093;37.614;15.072;2023-12-04T03:30:16;6.10;;;2.55;;
73779;SDS011;62093;37.614;15.072;2023-12-04T03:32:42;4.70;;;2.08;;
73779;SDS011;62093;37.614;15.072;2023-12-04T03:35:08;5.55;;;1.90;;
73779;SDS011;62093;37.614;15.072;2023-12-04T03:37:34;4.90;;;1.80;;
73779;SDS011;62093;37.614;15.072;2023-12-04T03:40:01;4.60;;;1.73;;
73779;SDS011;62093;37.614;15.072;2023-12-04T03:42:28;5.18;;;2.22;;
73779;SDS011;62093;37.614;15.072;2023-12-04T03:44:54;4.65;;;2.00;;
73779;SDS011;62093;37.614;15.072;2023-12-04T03:47:20;4.78;;;2.20;;
73779;SDS011;62093;37.614;15.072;2023-12-04T03:49:46;4.57;;;1.92;;
73779;SDS011;62093;37.614;15.072;2023-12-04T03:52:12;4.80;;;2.20;;
73779;SDS011;62093;37.614;15.072;2023-12-04T03:54:38;4.82;;;2.03;;
73779;SDS011;62093;37.614;15.072;2023-12-04T03:57:04;5.22;;;2.00;;
73779;SDS011;62093;37.614;15.072;2023-12-04T03:59:30;5.10;;;2.00;;
73779;SDS011;62093;37.614;15.072;2023-12-04T04:01:56;5.03;;;2.07;;
73779;SDS011;62093;37.614;15.072;2023-12-04T04:04:22;4.53;;;1.80;;
73779;SDS011;62093;37.614;15.072;2023-12-04T04:06:49;4.97;;;2.20;;
73779;SDS011;62093;37.614;15.072;2023-12-04T04:09:15;4.78;;;2.10;;
73779;SDS011;62093;37.614;15.072;2023-12-04T04:11:42;5.30;;;2.30;;
73779;SDS011;62093;37.614;15.072;2023-12-04T04:14:08;5.20;;;2.37;;
73779;SDS011;62093;37.614;15.072;2023-12-04T04:16:34;5.60;;;2.33;;
73779;SDS011;62093;37.614;15.072;2023-12-04T04:19:02;4.50;;;1.85;;
73779;SDS011;62093;37.614;15.072;2023-12-04T04:21:28;5.93;;;2.90;;
73779;SDS011;62093;37.614;15.072;2023-12-04T04:23:54;7.82;;;3.58;;
73779;SDS011;62093;37.614;15.072;2023-12-04T04:26:23;5.17;;;2.47;;
73779;SDS011;62093;37.614;15.072;2023-12-04T04:28:49;5.40;;;2.20;;
73779;SDS011;62093;37.614;15.072;2023-12-04T04:31:15;6.20;;;2.50;;
73779;SDS011;62093;37.614;15.072;2023-12-04T04:33:41;4.75;;;1.90;;
73779;SDS011;62093;37.614;15.072;2023-12-04T04:36:09;4.65;;;1.88;;
73779;SDS011;62093;37.614;15.072;2023-12-04T04:38:35;5.10;;;1.97;;
73779;SDS011;62093;37.614;15.072;2023-12-04T04:41:02;5.38;;;1.73;;
73779;SDS011;62093;37.614;15.072;2023-12-04T04:43:28;5.90;;;2.05;;
73779;SDS011;62093;37.614;15.072;2023-12-04T04:45:54;4.93;;;1.90;;
73779;SDS011;62093;37.614;15.072;2023-12-04T04:48:20;5.30;;;2.03;;
73779;SDS011;62093;37.614;15.072;2023-12-04T04:50:47;4.80;;;1.87;;
73779;SDS011;62093;37.614;15.072;2023-12-04T04:53:13;4.57;;;2.00;;
73779;SDS011;62093;37.614;15.072;2023-12-04T04:55:39;5.10;;;2.17;;
73779;SDS011;62093;37.614;15.072;2023-12-04T04:58:05;4.90;;;1.77;;
73779;SDS011;62093;37.614;15.072;2023-12-04T05:00:31;5.22;;;1.70;;
73779;SDS011;62093;37.614;15.072;2023-12-04T05:02:57;4.73;;;1.90;;
73779;SDS011;62093;37.614;15.072;2023-12-04T05:05:23;5.10;;;2.10;;
73779;SDS011;62093;37.614;15.072;2023-12-04T05:07:52;4.80;;;1.90;;
73779;SDS011;62093;37.614;15.072;2023-12-04T05:10:18;4.00;;;1.70;;
73779;SDS011;62093;37.614;15.072;2023-12-04T05:12:44;4.50;;;1.73;;
73779;SDS011;62093;37.614;15.072;2023-12-04T05:15:10;4.47;;;2.10;;
73779;SDS011;62093;37.614;15.072;2023-12-04T05:17:36;4.28;;;1.80;;
73779;SDS011;62093;37.614;15.072;2023-12-04T05:20:02;5.18;;;2.08;;
73779;SDS011;62093;37.614;15.072;2023-12-04T05:22:31;5.13;;;2.20;;
73779;SDS011;62093;37.614;15.072;2023-12-04T05:24:57;4.80;;;2.13;;
73779;SDS011;62093;37.614;15.072;2023-12-04T05:27:23;4.47;;;1.83;;
73779;SDS011;62093;37.614;15.072;2023-12-04T05:29:49;5.25;;;2.05;;
73779;SDS011;62093;37.614;15.072;2023-12-04T05:32:16;4.95;;;1.55;;
73779;SDS011;62093;37.614;15.072;2023-12-04T05:34:43;5.10;;;2.20;;
73779;SDS011;62093;37.614;15.072;2023-12-04T05:37:09;5.60;;;2.40;;
73779;SDS011;62093;37.614;15.072;2023-12-04T05:39:35;5.40;;;2.58;;
73779;SDS011;62093;37.614;15.072;2023-12-04T05:42:01;5.10;;;2.13;;
73779;SDS011;62093;37.614;15.072;2023-12-04T05:44:28;4.63;;;2.00;;
73779;SDS011;62093;37.614;15.072;2023-12-04T05:46:54;5.75;;;1.90;;
73779;SDS011;62093;37.614;15.072;2023-12-04T05:49:20;4.90;;;2.00;;
73779;SDS011;62093;37.614;15.072;2023-12-04T05:51:47;4.72;;;2.00;;
73779;SDS011;62093;37.614;15.072;2023-12-04T05:54:13;4.78;;;2.25;;
73779;SDS011;62093;37.614;15.072;2023-12-04T05:56:39;5.97;;;2.22;;
73779;SDS011;62093;37.614;15.072;2023-12-04T05:59:04;4.03;;;1.77;;
73779;SDS011;62093;37.614;15.072;2023-12-04T06:01:30;5.18;;;2.05;;
73779;SDS011;62093;37.614;15.072;2023-12-04T06:03:56;4.82;;;1.98;;
73779;SDS011;62093;37.614;15.072;2023-12-04T06:06:22;5.67;;;2.00;;
73779;SDS011;62093;37.614;15.072;2023-12-04T06:08:48;4.45;;;2.10;;
73779;SDS011;62093;37.614;15.072;2023-12-04T06:11:13;4.57;;;1.70;;
73779;SDS011;62093;37.614;15.072;2023-12-04T06:13:39;5.03;;;2.43;;
73779;SDS011;62093;37.614;15.072;2023-12-04T06:16:05;5.13;;;1.95;;
73779;SDS011;62093;37.614;15.072;2023-12-04T06:18:31;4.50;;;1.90;;
73779;SDS011;62093;37.614;15.072;2023-12-04T06:20:57;4.30;;;1.90;;
73779;SDS011;62093;37.614;15.072;2023-12-04T06:23:23;4.30;;;1.77;;
73779;SDS011;62093;37.614;15.072;2023-12-04T06:25:49;4.30;;;1.80;;
73779;SDS011;62093;37.614;15.072;2023-12-04T06:28:15;5.00;;;2.03;;
73779;SDS011;62093;37.614;15.072;2023-12-04T06:30:41;4.70;;;2.13;;
73779;SDS011;62093;37.614;15.072;2023-12-04T06:33:08;4.93;;;1.92;;
73779;SDS011;62093;37.614;15.072;2023-12-04T06:35:34;4.50;;;1.65;;
73779;SDS011;62093;37.614;15.072;2023-12-04T06:38:02;4.47;;;1.87;;
73779;SDS011;62093;37.614;15.072;2023-12-04T06:40:31;4.50;;;2.03;;
73779;SDS011;62093;37.614;15.072;2023-12-04T06:42:57;4.60;;;2.08;;
73779;SDS011;62093;37.614;15.072;2023-12-04T06:45:23;5.32;;;2.17;;
73779;SDS011;62093;37.614;15.072;2023-12-04T06:47:50;4.22;;;1.70;;
73779;SDS011;62093;37.614;15.072;2023-12-04T06:50:17;4.43;;;1.83;;
73779;SDS011;62093;37.614;15.072;2023-12-04T06:52:43;6.20;;;1.95;;
73779;SDS011;62093;37.614;15.072;2023-12-04T06:55:08;4.90;;;2.10;;
73779;SDS011;62093;37.614;15.072;2023-12-04T06:57:34;5.10;;;1.93;;
73779;SDS011;62093;37.614;15.072;2023-12-04T07:00:00;4.45;;;2.00;;
73779;SDS011;62093;37.614;15.072;2023-12-04T07:02:26;4.57;;;1.80;;
73779;SDS011;62093;37.614;15.072;2023-12-04T07:04:52;4.60;;;1.90;;
73779;SDS011;62093;37.614;15.072;2023-12-04T07:07:18;4.55;;;2.00;;
73779;SDS011;62093;37.614;15.072;2023-12-04T07:09:44;5.60;;;1.87;;
73779;SDS011;62093;37.614;15.072;2023-12-04T07:12:09;4.30;;;1.90;;
73779;SDS011;62093;37.614;15.072;2023-12-04T07:14:35;4.30;;;1.42;;
73779;SDS011;62093;37.614;15.072;2023-12-04T07:17:01;5.83;;;2.10;;
73779;SDS011;62093;37.614;15.072;2023-12-04T07:19:27;4.40;;;1.67;;
73779;SDS011;62093;37.614;15.072;2023-12-04T07:21:54;5.95;;;1.70;;
73779;SDS011;62093;37.614;15.072;2023-12-04T07:24:20;4.88;;;1.75;;
73779;SDS011;62093;37.614;15.072;2023-12-04T07:26:46;5.10;;;2.00;;
73779;SDS011;62093;37.614;15.072;2023-12-04T07:29:12;5.03;;;1.95;;
73779;SDS011;62093;37.614;15.072;2023-12-04T07:31:38;4.50;;;1.90;;
73779;SDS011;62093;37.614;15.072;2023-12-04T07:34:03;4.73;;;1.80;;
73779;SDS011;62093;37.614;15.072;2023-12-04T07:36:29;4.13;;;1.70;;
73779;SDS011;62093;37.614;15.072;2023-12-04T07:38:55;4.95;;;1.90;;
73779;SDS011;62093;37.614;15.072;2023-12-04T07:41:21;5.07;;;1.93;;
73779;SDS011;62093;37.614;15.072;2023-12-04T07:43:47;4.72;;;1.85;;
73779;SDS011;62093;37.614;15.072;2023-12-04T07:46:13;5.35;;;1.63;;
73779;SDS011;62093;37.614;15.072;2023-12-04T07:48:39;4.47;;;1.80;;
73779;SDS011;62093;37.614;15.072;2023-12-04T07:51:05;4.93;;;1.60;;
73779;SDS011;62093;37.614;15.072;2023-12-04T07:53:32;5.07;;;1.67;;
73779;SDS011;62093;37.614;15.072;2023-12-04T07:56:00;4.60;;;1.70;;
73779;SDS011;62093;37.614;15.072;2023-12-04T07:58:30;3.80;;;1.60;;
73779;SDS011;62093;37.614;15.072;2023-12-04T08:00:57;4.47;;;1.83;;
73779;SDS011;62093;37.614;15.072;2023-12-04T08:03:23;4.20;;;1.80;;
73779;SDS011;62093;37.614;15.072;2023-12-04T08:05:52;5.00;;;1.63;;
73779;SDS011;62093;37.614;15.072;2023-12-04T08:08:18;5.00;;;1.73;;
73779;SDS011;62093;37.614;15.072;2023-12-04T08:10:44;4.50;;;2.00;;
73779;SDS011;62093;37.614;15.072;2023-12-04T08:13:10;5.30;;;1.85;;
73779;SDS011;62093;37.614;15.072;2023-12-04T08:15:35;5.15;;;1.60;;
73779;SDS011;62093;37.614;15.072;2023-12-04T08:18:01;4.03;;;1.90;;
73779;SDS011;62093;37.614;15.072;2023-12-04T08:20:28;4.40;;;1.75;;
73779;SDS011;62093;37.614;15.072;2023-12-04T08:22:53;4.40;;;1.70;;
73779;SDS011;62093;37.614;15.072;2023-12-04T08:25:20;4.40;;;1.77;;
73779;SDS011;62093;37.614;15.072;2023-12-04T08:27:46;5.37;;;1.97;;
73779;SDS011;62093;37.614;15.072;2023-12-04T08:30:13;5.25;;;1.80;;
73779;SDS011;62093;37.614;15.072;2023-12-04T08:32:39;4.30;;;2.00;;
73779;SDS011;62093;37.614;15.072;2023-12-04T08:35:05;4.22;;;1.58;;
73779;SDS011;62093;37.614;15.072;2023-12-04T08:37:31;4.10;;;1.80;;
73779;SDS011;62093;37.614;15.072;2023-12-04T08:39:57;4.05;;;1.95;;
73779;SDS011;62093;37.614;15.072;2023-12-04T08:42:23;4.20;;;1.60;;
73779;SDS011;62093;37.614;15.072;2023-12-04T08:44:49;4.27;;;1.67;;
73779;SDS011;62093;37.614;15.072;2023-12-04T08:47:14;4.97;;;1.85;;
73779;SDS011;62093;37.614;15.072;2023-12-04T08:49:40;4.80;;;1.43;;
73779;SDS011;62093;37.614;15.072;2023-12-04T08:52:06;4.47;;;1.50;;
73779;SDS011;62093;37.614;15.072;2023-12-04T08:54:33;4.72;;;1.65;;
73779;SDS011;62093;37.614;15.072;2023-12-04T08:56:59;4.57;;;1.80;;
73779;SDS011;62093;37.614;15.072;2023-12-04T08:59:25;4.30;;;1.57;;
73779;SDS011;62093;37.614;15.072;2023-12-04T09:01:51;4.78;;;1.80;;
73779;SDS011;62093;37.614;15.072;2023-12-04T09:04:17;4.70;;;1.80;;
73779;SDS011;62093;37.614;15.072;2023-12-04T09:06:43;4.90;;;1.60;;
73779;SDS011;62093;37.614;15.072;2023-12-04T09:09:08;4.72;;;1.75;;
73779;SDS011;62093;37.614;15.072;2023-12-04T09:11:34;3.80;;;1.40;;
73779;SDS011;62093;37.614;15.072;2023-12-04T09:14:00;5.70;;;1.63;;
73779;SDS011;62093;37.614;15.072;2023-12-04T09:16:26;4.25;;;1.70;;
73779;SDS011;62093;37.614;15.072;2023-12-04T09:18:52;4.63;;;1.58;;
73779;SDS011;62093;37.614;15.072;2023-12-04T09:21:19;4.35;;;1.42;;
73779;SDS011;62093;37.614;15.072;2023-12-04T09:23:44;4.37;;;1.70;;
73779;SDS011;62093;37.614;15.072;2023-12-04T09:26:15;4.30;;;1.50;;
73779;SDS011;62093;37.614;15.072;2023-12-04T09:28:42;3.70;;;1.42;;
73779;SDS011;62093;37.614;15.072;2023-12-04T09:31:08;4.43;;;1.40;;
73779;SDS011;62093;37.614;15.072;2023-12-04T09:33:34;4.13;;;1.60;;
73779;SDS011;62093;37.614;15.072;2023-12-04T09:36:01;4.90;;;1.75;;
73779;SDS011;62093;37.614;15.072;2023-12-04T09:38:29;4.03;;;1.70;;
73779;SDS011;62093;37.614;15.072;2023-12-04T09:40:55;4.38;;;1.60;;
73779;SDS011;62093;37.614;15.072;2023-12-04T09:43:25;4.03;;;1.60;;
73779;SDS011;62093;37.614;15.072;2023-12-04T09:45:51;4.25;;;1.40;;
73779;SDS011;62093;37.614;15.072;2023-12-04T09:48:18;5.60;;;1.65;;
73779;SDS011;62093;37.614;15.072;2023-12-04T09:50:46;4.35;;;1.50;;
73779;SDS011;62093;37.614;15.072;2023-12-04T09:53:13;4.43;;;1.52;;
73779;SDS011;62093;37.614;15.072;2023-12-04T09:55:39;5.00;;;1.40;;
73779;SDS011;62093;37.614;15.072;2023-12-04T09:58:06;4.40;;;1.63;;
73779;SDS011;62093;37.614;15.072;2023-12-04T10:00:32;4.95;;;1.90;;
73779;SDS011;62093;37.614;15.072;2023-12-04T10:02:58;4.00;;;1.63;;
73779;SDS011;62093;37.614;15.072;2023-12-04T10:05:25;4.43;;;1.90;;
73779;SDS011;62093;37.614;15.072;2023-12-04T10:07:51;3.80;;;1.50;;
73779;SDS011;62093;37.614;15.072;2023-12-04T10:10:16;4.00;;;1.60;;
73779;SDS011;62093;37.614;15.072;2023-12-04T10:12:43;5.45;;;2.00;;
73779;SDS011;62093;37.614;15.072;2023-12-04T10:15:10;4.22;;;1.70;;
73779;SDS011;62093;37.614;15.072;2023-12-04T10:17:41;4.00;;;1.50;;
73779;SDS011;62093;37.614;15.072;2023-12-04T10:20:09;3.92;;;1.45;;
73779;SDS011;62093;37.614;15.072;2023-12-04T10:25:24;4.57;;;1.63;;
73779;SDS011;62093;37.614;15.072;2023-12-04T10:27:52;4.43;;;1.50;;
73779;SDS011;62093;37.614;15.072;2023-12-04T10:32:58;4.35;;;1.98;;
73779;SDS011;62093;37.614;15.072;2023-12-04T10:35:28;4.03;;;1.30;;
73779;SDS011;62093;37.614;15.072;2023-12-04T10:37:58;4.80;;;1.40;;
73779;SDS011;62093;37.614;15.072;2023-12-04T10:40:27;4.13;;;1.55;;
73779;SDS011;62093;37.614;15.072;2023-12-04T10:43:15;4.37;;;1.50;;
73779;SDS011;62093;37.614;15.072;2023-12-04T10:45:47;5.22;;;1.52;;
73779;SDS011;62093;37.614;15.072;2023-12-04T10:48:15;4.40;;;1.70;;
73779;SDS011;62093;37.614;15.072;2023-12-04T10:50:42;4.28;;;1.42;;
73779;SDS011;62093;37.614;15.072;2023-12-04T10:53:12;4.85;;;1.42;;
73779;SDS011;62093;37.614;15.072;2023-12-04T10:55:39;5.07;;;1.97;;
73779;SDS011;62093;37.614;15.072;2023-12-04T10:58:07;4.20;;;1.58;;
73779;SDS011;62093;37.614;15.072;2023-12-04T11:00:38;3.90;;;1.50;;
73779;SDS011;62093;37.614;15.072;2023-12-04T11:03:07;3.90;;;1.40;;
73779;SDS011;62093;37.614;15.072;2023-12-04T11:05:38;4.55;;;1.70;;
73779;SDS011;62093;37.614;15.072;2023-12-04T11:08:06;5.00;;;1.40;;
73779;SDS011;62093;37.614;15.072;2023-12-04T11:10:39;5.03;;;1.60;;
73779;SDS011;62093;37.614;15.072;2023-12-04T11:13:21;4.30;;;1.60;;
73779;SDS011;62093;37.614;15.072;2023-12-04T11:15:49;3.75;;;1.27;;
73779;SDS011;62093;37.614;15.072;2023-12-04T11:18:19;4.35;;;1.30;;
73779;SDS011;62093;37.614;15.072;2023-12-04T11:20:51;4.30;;;1.53;;
73779;SDS011;62093;37.614;15.072;2023-12-04T11:23:18;4.20;;;1.30;;
73779;SDS011;62093;37.614;15.072;2023-12-04T11:25:45;4.10;;;1.55;;
73779;SDS011;62093;37.614;15.072;2023-12-04T11:28:12;4.93;;;1.30;;
73779;SDS011;62093;37.614;15.072;2023-12-04T11:30:39;4.55;;;1.55;;
73779;SDS011;62093;37.614;15.072;2023-12-04T11:33:05;4.17;;;1.50;;
73779;SDS011;62093;37.614;15.072;2023-12-04T11:35:31;3.90;;;1.60;;
73779;SDS011;62093;37.614;15.072;2023-12-04T11:37:59;4.53;;;1.40;;
73779;SDS011;62093;37.614;15.072;2023-12-04T11:40:25;3.60;;;1.30;;
73779;SDS011;62093;37.614;15.072;2023-12-04T11:42:51;4.07;;;1.58;;
73779;SDS011;62093;37.614;15.072;2023-12-04T11:45:18;3.85;;;1.52;;
73779;SDS011;62093;37.614;15.072;2023-12-04T11:47:49;3.50;;;1.27;;
73779;SDS011;62093;37.614;15.072;2023-12-04T11:50:15;4.05;;;1.60;;
73779;SDS011;62093;37.614;15.072;2023-12-04T11:52:42;3.90;;;1.40;;
73779;SDS011;62093;37.614;15.072;2023-12-04T11:55:08;4.47;;;1.67;;
73779;SDS011;62093;37.614;15.072;2023-12-04T11:57:38;3.83;;;1.50;;
73779;SDS011;62093;37.614;15.072;2023-12-04T12:02:46;3.92;;;1.63;;
73779;SDS011;62093;37.614;15.072;2023-12-04T12:05:21;4.60;;;1.63;;
73779;SDS011;62093;37.614;15.072;2023-12-04T12:07:48;3.50;;;1.23;;
73779;SDS011;62093;37.614;15.072;2023-12-04T12:10:15;3.50;;;1.35;;
73779;SDS011;62093;37.614;15.072;2023-12-04T12:12:44;4.07;;;1.48;;
73779;SDS011;62093;37.614;15.072;2023-12-04T12:15:11;4.20;;;1.60;;
73779;SDS011;62093;37.614;15.072;2023-12-04T12:17:38;3.83;;;1.50;;
73779;SDS011;62093;37.614;15.072;2023-12-04T12:20:11;4.00;;;1.30;;
73779;SDS011;62093;37.614;15.072;2023-12-04T12:22:38;3.92;;;1.52;;
73779;SDS011;62093;37.614;15.072;2023-12-04T12:25:07;5.05;;;1.20;;
73779;SDS011;62093;37.614;15.072;2023-12-04T12:27:33;4.63;;;1.50;;
73779;SDS011;62093;37.614;15.072;2023-12-04T12:30:00;4.00;;;1.20;;
73779;SDS011;62093;37.614;15.072;2023-12-04T12:32:26;3.83;;;1.40;;
73779;SDS011;62093;37.614;15.072;2023-12-04T12:34:55;3.90;;;1.20;;
73779;SDS011;62093;37.614;15.072;2023-12-04T12:37:21;4.38;;;1.60;;
73779;SDS011;62093;37.614;15.072;2023-12-04T12:39:47;3.58;;;1.20;;
73779;SDS011;62093;37.614;15.072;2023-12-04T12:42:26;4.20;;;1.50;;
73779;SDS011;62093;37.614;15.072;2023-12-04T12:44:53;4.40;;;1.60;;
73779;SDS011;62093;37.614;15.072;2023-12-04T12:47:20;4.18;;;1.42;;
73779;SDS011;62093;37.614;15.072;2023-12-04T12:49:47;3.50;;;1.30;;
73779;SDS011;62093;37.614;15.072;2023-12-04T12:52:12;4.57;;;1.40;;
73779;SDS011;62093;37.614;15.072;2023-12-04T12:54:42;4.47;;;1.50;;
73779;SDS011;62093;37.614;15.072;2023-12-04T12:57:09;3.95;;;1.38;;
73779;SDS011;62093;37.614;15.072;2023-12-04T12:59:39;4.70;;;1.58;;
73779;SDS011;62093;37.614;15.072;2023-12-04T13:02:05;3.95;;;1.38;;
73779;SDS011;62093;37.614;15.072;2023-12-04T13:04:35;3.80;;;1.53;;
73779;SDS011;62093;37.614;15.072;2023-12-04T13:07:08;3.95;;;1.30;;
73779;SDS011;62093;37.614;15.072;2023-12-04T13:09:34;4.18;;;1.27;;
73779;SDS011;62093;37.614;15.072;2023-12-04T13:12:05;3.72;;;1.40;;
73779;SDS011;62093;37.614;15.072;2023-12-04T13:14:33;3.90;;;1.35;;
73779;SDS011;62093;37.614;15.072;2023-12-04T13:17:00;4.07;;;1.57;;
73779;SDS011;62093;37.614;15.072;2023-12-04T13:19:26;4.13;;;1.30;;
73779;SDS011;62093;37.614;15.072;2023-12-04T13:21:52;4.18;;;1.40;;
73779;SDS011;62093;37.614;15.072;2023-12-04T13:24:18;4.93;;;1.17;;
73779;SDS011;62093;37.614;15.072;2023-12-04T13:26:45;4.47;;;1.40;;
73779;SDS011;62093;37.614;15.072;2023-12-04T13:29:11;4.30;;;1.50;;
73779;SDS011;62093;37.614;15.072;2023-12-04T13:31:41;4.97;;;1.70;;
73779;SDS011;62093;37.614;15.072;2023-12-04T13:34:07;5.28;;;1.90;;
73779;SDS011;62093;37.614;15.072;2023-12-04T13:36:34;4.00;;;1.40;;
73779;SDS011;62093;37.614;15.072;2023-12-04T13:39:01;6.77;;;1.70;;
73779;SDS011;62093;37.614;15.072;2023-12-04T13:41:30;4.70;;;1.52;;
73779;SDS011;62093;37.614;15.072;2023-12-04T13:44:15;5.03;;;1.30;;
73779;SDS011;62093;37.614;15.072;2023-12-04T13:46:41;4.15;;;1.40;;
73779;SDS011;62093;37.614;15.072;2023-12-04T13:49:07;3.87;;;1.20;;
73779;SDS011;62093;37.614;15.072;2023-12-04T13:51:33;4.63;;;1.60;;
73779;SDS011;62093;37.614;15.072;2023-12-04T13:54:00;4.72;;;1.45;;
73779;SDS011;62093;37.614;15.072;2023-12-04T13:56:41;4.38;;;1.13;;
73779;SDS011;62093;37.614;15.072;2023-12-04T13:59:12;4.80;;;1.47;;
73779;SDS011;62093;37.614;15.072;2023-12-04T14:01:45;4.20;;;1.40;;
73779;SDS011;62093;37.614;15.072;2023-12-04T14:04:12;3.95;;;1.45;;
73779;SDS011;62093;37.614;15.072;2023-12-04T14:06:38;5.25;;;1.38;;
73779;SDS011;62093;37.614;15.072;2023-12-04T14:09:04;4.80;;;1.35;;
73779;SDS011;62093;37.614;15.072;2023-12-04T14:11:36;5.67;;;1.23;;
73779;SDS011;62093;37.614;15.072;2023-12-04T14:14:02;3.80;;;1.42;;
73779;SDS011;62093;37.614;15.072;2023-12-04T14:16:29;4.35;;;1.50;;
73779;SDS011;62093;37.614;15.072;2023-12-04T14:18:56;3.70;;;1.17;;
73779;SDS011;62093;37.614;15.072;2023-12-04T14:21:22;5.07;;;1.25;;
73779;SDS011;62093;37.614;15.072;2023-12-04T14:23:48;3.83;;;1.40;;
73779;SDS011;62093;37.614;15.072;2023-12-04T14:26:14;4.30;;;1.42;;
73779;SDS011;62093;37.614;15.072;2023-12-04T14:28:40;4.00;;;1.42;;
73779;SDS011;62093;37.614;15.072;2023-12-04T14:31:05;4.40;;;1.30;;
73779;SDS011;62093;37.614;15.072;2023-12-04T14:33:32;4.38;;;1.50;;
73779;SDS011;62093;37.614;15.072;2023-12-04T14:35:59;4.95;;;1.20;;
73779;SDS011;62093;37.614;15.072;2023-12-04T14:38:24;3.88;;;1.33;;
73779;SDS011;62093;37.614;15.072;2023-12-04T14:40:51;4.70;;;1.47;;